sensor_id;sensor_type;location;lat;lon;timestamp;pressure;altitude;pressure_sealevel;temperature;humidity
30875;BME280;17581;43.222;27.924;2023-04-01T00:01:18;99944.22;;;13.63;63.92
30875;BME280;17581;43.222;27.924;2023-04-01T00:03:44;99932.03;;;13.59;63.88
30875;BME280;17581;43.222;27.924;2023-04-01T00:06:13;99928.66;;;13.57;63.98
30875;BME280;17581;43.222;27.924;2023-04-01T00:08:38;99933.44;;;13.63;63.80
30875;BME280;17581;43.222;27.924;2023-04-01T00:11:04;99931.56;;;13.63;63.89
30875;BME280;17581;43.222;27.924;2023-04-01T00:13:30;99928.88;;;13.63;63.78
30875;BME280;17581;43.222;27.924;2023-04-01T00:15:56;99930.88;;;13.61;63.67
30875;BME280;17581;43.222;27.924;2023-04-01T00:18:25;99938.84;;;13.63;63.67
30875;BME280;17581;43.222;27.924;2023-04-01T00:20:51;99916.00;;;13.57;63.78
30875;BME280;17581;43.222;27.924;2023-04-01T00:23:17;99926.53;;;13.69;63.72
30875;BME280;17581;43.222;27.924;2023-04-01T00:25:44;99930.22;;;13.68;63.69
30875;BME280;17581;43.222;27.924;2023-04-01T00:28:10;99923.47;;;13.63;63.77
30875;BME280;17581;43.222;27.924;2023-04-01T00:30:36;99917.88;;;13.65;63.89
30875;BME280;17581;43.222;27.924;2023-04-01T00:33:02;99913.47;;;13.64;63.87
30875;BME280;17581;43.222;27.924;2023-04-01T00:35:28;99910.97;;;13.62;63.86
30875;BME280;17581;43.222;27.924;2023-04-01T00:37:55;99911.16;;;13.69;63.79
30875;BME280;17581;43.222;27.924;2023-04-01T00:40:42;99907.44;;;13.70;63.94
30875;BME280;17581;43.222;27.924;2023-04-01T00:43:25;99902.53;;;13.66;64.05
30875;BME280;17581;43.222;27.924;2023-04-01T00:45:51;99907.28;;;13.72;64.16
30875;BME280;17581;43.222;27.924;2023-04-01T00:48:19;99901.69;;;13.73;64.10
30875;BME280;17581;43.222;27.924;2023-04-01T00:50:52;99892.28;;;13.77;63.95
30875;BME280;17581;43.222;27.924;2023-04-01T00:53:19;99897.66;;;13.77;63.84
30875;BME280;17581;43.222;27.924;2023-04-01T00:55:51;99890.25;;;13.79;64.01
30875;BME280;17581;43.222;27.924;2023-04-01T00:58:20;99885.88;;;13.78;64.05
30875;BME280;17581;43.222;27.924;2023-04-01T01:00:49;99883.50;;;13.75;64.09
30875;BME280;17581;43.222;27.924;2023-04-01T01:03:16;99881.81;;;13.82;64.06
30875;BME280;17581;43.222;27.924;2023-04-01T01:11:24;99898.41;;;13.87;63.82
30875;BME280;17581;43.222;27.924;2023-04-01T01:14:02;99895.66;;;13.79;63.84
30875;BME280;17581;43.222;27.924;2023-04-01T01:16:33;99900.25;;;13.45;64.32
30875;BME280;17581;43.222;27.924;2023-04-01T01:19:30;99919.53;;;13.06;65.35
30875;BME280;17581;43.222;27.924;2023-04-01T01:24:57;99915.03;;;12.89;65.13
30875;BME280;17581;43.222;27.924;2023-04-01T01:27:31;99901.94;;;12.77;65.74
30875;BME280;17581;43.222;27.924;2023-04-01T01:37:58;99890.94;;;12.35;67.47
30875;BME280;17581;43.222;27.924;2023-04-01T01:40:26;99879.06;;;12.28;67.61
30875;BME280;17581;43.222;27.924;2023-04-01T01:42:56;99880.06;;;12.27;67.77
30875;BME280;17581;43.222;27.924;2023-04-01T01:45:25;99890.09;;;12.17;68.08
30875;BME280;17581;43.222;27.924;2023-04-01T01:47:51;99892.94;;;12.15;68.81
30875;BME280;17581;43.222;27.924;2023-04-01T01:50:18;99891.69;;;12.10;69.04
30875;BME280;17581;43.222;27.924;2023-04-01T01:52:44;99886.13;;;12.11;68.75
30875;BME280;17581;43.222;27.924;2023-04-01T01:55:43;99894.53;;;12.08;68.76
30875;BME280;17581;43.222;27.924;2023-04-01T01:58:27;99903.69;;;11.97;69.02
30875;BME280;17581;43.222;27.924;2023-04-01T02:00:59;99897.13;;;11.82;69.87
30875;BME280;17581;43.222;27.924;2023-04-01T02:03:26;99904.66;;;11.69;70.58
30875;BME280;17581;43.222;27.924;2023-04-01T02:05:56;99893.63;;;11.72;70.31
30875;BME280;17581;43.222;27.924;2023-04-01T02:08:50;99898.31;;;11.70;70.41
30875;BME280;17581;43.222;27.924;2023-04-01T02:11:16;99886.78;;;11.68;70.64
30875;BME280;17581;43.222;27.924;2023-04-01T02:13:53;99894.50;;;11.63;70.76
30875;BME280;17581;43.222;27.924;2023-04-01T02:19:03;99875.72;;;11.44;71.51
30875;BME280;17581;43.222;27.924;2023-04-01T02:21:33;99857.78;;;11.35;71.92
30875;BME280;17581;43.222;27.924;2023-04-01T02:24:01;99870.78;;;11.39;72.15
30875;BME280;17581;43.222;27.924;2023-04-01T02:26:27;99851.53;;;11.34;72.07
30875;BME280;17581;43.222;27.924;2023-04-01T02:28:54;99849.50;;;11.19;72.71
30875;BME280;17581;43.222;27.924;2023-04-01T02:31:22;99849.13;;;11.31;73.50
30875;BME280;17581;43.222;27.924;2023-04-01T02:33:48;99852.91;;;11.48;74.00
30875;BME280;17581;43.222;27.924;2023-04-01T02:36:15;99845.94;;;11.55;73.91
30875;BME280;17581;43.222;27.924;2023-04-01T02:38:43;99846.13;;;11.71;74.15
30875;BME280;17581;43.222;27.924;2023-04-01T02:41:10;99847.78;;;11.82;73.43
30875;BME280;17581;43.222;27.924;2023-04-01T02:43:36;99845.03;;;11.91;73.16
30875;BME280;17581;43.222;27.924;2023-04-01T02:46:01;99828.53;;;11.94;72.37
30875;BME280;17581;43.222;27.924;2023-04-01T02:48:28;99842.03;;;12.12;72.21
30875;BME280;17581;43.222;27.924;2023-04-01T02:50:53;99834.53;;;12.24;71.91
30875;BME280;17581;43.222;27.924;2023-04-01T02:53:19;99825.41;;;12.17;71.62
30875;BME280;17581;43.222;27.924;2023-04-01T02:55:45;99828.22;;;12.33;71.37
30875;BME280;17581;43.222;27.924;2023-04-01T02:58:10;99820.53;;;12.38;70.92
30875;BME280;17581;43.222;27.924;2023-04-01T03:00:37;99807.19;;;12.36;70.96
30875;BME280;17581;43.222;27.924;2023-04-01T03:03:02;99811.81;;;12.44;70.32
30875;BME280;17581;43.222;27.924;2023-04-01T03:05:28;99816.03;;;12.46;69.62
30875;BME280;17581;43.222;27.924;2023-04-01T03:07:53;99800.09;;;12.35;69.48
30875;BME280;17581;43.222;27.924;2023-04-01T03:10:19;99814.81;;;12.41;69.75
30875;BME280;17581;43.222;27.924;2023-04-01T03:12:45;99804.34;;;12.38;69.90
30875;BME280;17581;43.222;27.924;2023-04-01T03:15:11;99811.50;;;12.47;69.63
30875;BME280;17581;43.222;27.924;2023-04-01T03:17:39;99808.50;;;12.50;69.45
30875;BME280;17581;43.222;27.924;2023-04-01T03:20:06;99799.88;;;12.46;69.67
30875;BME280;17581;43.222;27.924;2023-04-01T03:22:34;99800.84;;;12.45;69.26
30875;BME280;17581;43.222;27.924;2023-04-01T03:25:00;99794.94;;;12.42;69.50
30875;BME280;17581;43.222;27.924;2023-04-01T03:27:25;99795.78;;;12.42;69.22
30875;BME280;17581;43.222;27.924;2023-04-01T03:29:51;99795.94;;;12.41;69.20
30875;BME280;17581;43.222;27.924;2023-04-01T03:32:16;99793.88;;;12.35;69.30
30875;BME280;17581;43.222;27.924;2023-04-01T03:34:42;99793.16;;;12.33;68.75
30875;BME280;17581;43.222;27.924;2023-04-01T03:37:07;99788.41;;;12.27;69.06
30875;BME280;17581;43.222;27.924;2023-04-01T03:39:32;99786.50;;;12.19;68.93
30875;BME280;17581;43.222;27.924;2023-04-01T03:41:58;99786.28;;;12.13;69.46
30875;BME280;17581;43.222;27.924;2023-04-01T03:44:24;99793.50;;;12.12;69.54
30875;BME280;17581;43.222;27.924;2023-04-01T03:46:50;99793.75;;;12.01;69.62
30875;BME280;17581;43.222;27.924;2023-04-01T03:49:15;99789.59;;;12.07;70.67
30875;BME280;17581;43.222;27.924;2023-04-01T03:51:42;99809.13;;;12.09;70.20
30875;BME280;17581;43.222;27.924;2023-04-01T03:54:09;99794.97;;;12.07;70.14
30875;BME280;17581;43.222;27.924;2023-04-01T03:56:35;99793.44;;;12.04;70.59
30875;BME280;17581;43.222;27.924;2023-04-01T03:59:03;99790.50;;;11.97;70.69
30875;BME280;17581;43.222;27.924;2023-04-01T04:01:29;99804.91;;;12.06;70.09
30875;BME280;17581;43.222;27.924;2023-04-01T04:03:55;99813.84;;;12.07;70.66
30875;BME280;17581;43.222;27.924;2023-04-01T04:06:20;99812.84;;;12.08;70.58
30875;BME280;17581;43.222;27.924;2023-04-01T04:08:46;99817.63;;;12.14;69.94
30875;BME280;17581;43.222;27.924;2023-04-01T04:11:11;99813.06;;;12.14;70.20
30875;BME280;17581;43.222;27.924;2023-04-01T04:13:37;99808.22;;;12.18;69.81
30875;BME280;17581;43.222;27.924;2023-04-01T04:16:03;99803.66;;;12.18;69.90
30875;BME280;17581;43.222;27.924;2023-04-01T04:18:29;99801.81;;;12.19;69.75
30875;BME280;17581;43.222;27.924;2023-04-01T04:20:55;99798.81;;;12.22;69.72
30875;BME280;17581;43.222;27.924;2023-04-01T04:23:21;99801.34;;;12.23;69.82
30875;BME280;17581;43.222;27.924;2023-04-01T04:25:58;99797.81;;;12.23;69.93
30875;BME280;17581;43.222;27.924;2023-04-01T04:28:25;99803.91;;;12.25;69.70
30875;BME280;17581;43.222;27.924;2023-04-01T04:30:52;99785.78;;;12.17;69.81
30875;BME280;17581;43.222;27.924;2023-04-01T04:33:17;99801.44;;;12.31;70.32
30875;BME280;17581;43.222;27.924;2023-04-01T04:35:43;99793.34;;;12.31;69.92
30875;BME280;17581;43.222;27.924;2023-04-01T04:38:08;99786.16;;;12.40;70.24
30875;BME280;17581;43.222;27.924;2023-04-01T04:40:36;99790.91;;;12.46;69.64
30875;BME280;17581;43.222;27.924;2023-04-01T04:43:02;99784.38;;;12.48;69.59
30875;BME280;17581;43.222;27.924;2023-04-01T04:45:28;99791.06;;;12.62;69.33
30875;BME280;17581;43.222;27.924;2023-04-01T04:47:53;99787.72;;;12.68;69.54
30875;BME280;17581;43.222;27.924;2023-04-01T04:50:18;99792.31;;;12.76;69.33
30875;BME280;17581;43.222;27.924;2023-04-01T04:52:44;99781.59;;;12.84;69.15
30875;BME280;17581;43.222;27.924;2023-04-01T04:55:09;99779.91;;;12.91;69.35
30875;BME280;17581;43.222;27.924;2023-04-01T04:57:35;99791.44;;;13.01;69.71
30875;BME280;17581;43.222;27.924;2023-04-01T05:00:00;99788.50;;;13.12;69.44
30875;BME280;17581;43.222;27.924;2023-04-01T05:02:26;99782.63;;;13.25;69.58
30875;BME280;17581;43.222;27.924;2023-04-01T05:04:51;99789.28;;;13.38;69.09
30875;BME280;17581;43.222;27.924;2023-04-01T05:07:16;99787.66;;;13.53;68.64
30875;BME280;17581;43.222;27.924;2023-04-01T05:09:42;99779.75;;;13.68;68.38
30875;BME280;17581;43.222;27.924;2023-04-01T05:12:07;99777.56;;;13.80;68.29
30875;BME280;17581;43.222;27.924;2023-04-01T05:14:33;99786.38;;;13.90;67.99
30875;BME280;17581;43.222;27.924;2023-04-01T05:16:58;99773.56;;;14.00;67.29
30875;BME280;17581;43.222;27.924;2023-04-01T05:19:23;99773.25;;;14.03;67.45
30875;BME280;17581;43.222;27.924;2023-04-01T05:21:49;99775.09;;;14.18;66.90
30875;BME280;17581;43.222;27.924;2023-04-01T05:24:15;99779.16;;;14.31;65.58
30875;BME280;17581;43.222;27.924;2023-04-01T05:26:40;99764.97;;;14.45;65.33
30875;BME280;17581;43.222;27.924;2023-04-01T05:29:06;99763.28;;;14.52;64.73
30875;BME280;17581;43.222;27.924;2023-04-01T05:31:31;99753.44;;;14.59;64.63
30875;BME280;17581;43.222;27.924;2023-04-01T05:33:57;99747.50;;;14.71;63.82
30875;BME280;17581;43.222;27.924;2023-04-01T05:36:22;99747.66;;;14.78;63.39
30875;BME280;17581;43.222;27.924;2023-04-01T05:38:48;99751.69;;;14.90;63.29
30875;BME280;17581;43.222;27.924;2023-04-01T05:41:14;99749.78;;;14.99;63.15
30875;BME280;17581;43.222;27.924;2023-04-01T05:43:41;99748.28;;;15.04;63.05
30875;BME280;17581;43.222;27.924;2023-04-01T05:46:06;99744.19;;;15.08;63.28
30875;BME280;17581;43.222;27.924;2023-04-01T05:48:33;99738.22;;;15.21;62.71
30875;BME280;17581;43.222;27.924;2023-04-01T05:51:00;99736.63;;;15.35;62.23
30875;BME280;17581;43.222;27.924;2023-04-01T05:53:26;99734.53;;;15.45;61.77
30875;BME280;17581;43.222;27.924;2023-04-01T05:55:51;99725.19;;;15.55;61.44
30875;BME280;17581;43.222;27.924;2023-04-01T05:58:16;99719.91;;;15.62;61.30
30875;BME280;17581;43.222;27.924;2023-04-01T06:00:42;99723.34;;;15.78;60.92
30875;BME280;17581;43.222;27.924;2023-04-01T06:03:07;99728.81;;;15.93;60.99
30875;BME280;17581;43.222;27.924;2023-04-01T06:05:43;99718.16;;;16.14;59.97
30875;BME280;17581;43.222;27.924;2023-04-01T06:08:15;99715.59;;;16.36;59.19
30875;BME280;17581;43.222;27.924;2023-04-01T06:24:50;99712.09;;;16.79;57.21
30875;BME280;17581;43.222;27.924;2023-04-01T06:33:24;99687.50;;;16.66;57.45
30875;BME280;17581;43.222;27.924;2023-04-01T06:47:56;99696.38;;;16.60;57.64
30875;BME280;17581;43.222;27.924;2023-04-01T06:50:37;99669.28;;;16.52;57.26
30875;BME280;17581;43.222;27.924;2023-04-01T06:53:15;99692.34;;;16.56;57.11
30875;BME280;17581;43.222;27.924;2023-04-01T06:55:51;99683.22;;;16.49;57.24
30875;BME280;17581;43.222;27.924;2023-04-01T06:58:23;99680.50;;;16.34;57.68
30875;BME280;17581;43.222;27.924;2023-04-01T07:00:57;99679.88;;;16.09;58.50
30875;BME280;17581;43.222;27.924;2023-04-01T07:03:34;99693.47;;;15.64;60.12
30875;BME280;17581;43.222;27.924;2023-04-01T07:06:04;99694.78;;;15.68;60.69
30875;BME280;17581;43.222;27.924;2023-04-01T07:08:34;99685.34;;;15.64;60.87
30875;BME280;17581;43.222;27.924;2023-04-01T07:11:04;99705.81;;;15.66;60.73
30875;BME280;17581;43.222;27.924;2023-04-01T07:13:49;99707.13;;;15.70;60.97
30875;BME280;17581;43.222;27.924;2023-04-01T07:16:36;99691.28;;;15.82;61.35
30875;BME280;17581;43.222;27.924;2023-04-01T07:21:52;99693.03;;;16.20;60.85
30875;BME280;17581;43.222;27.924;2023-04-01T07:24:29;99681.56;;;16.10;60.74
30875;BME280;17581;43.222;27.924;2023-04-01T07:26:57;99681.22;;;16.28;60.77
30875;BME280;17581;43.222;27.924;2023-04-01T07:29:23;99683.09;;;16.27;60.06
30875;BME280;17581;43.222;27.924;2023-04-01T07:34:59;99680.69;;;16.32;60.17
30875;BME280;17581;43.222;27.924;2023-04-01T07:43:14;99677.03;;;16.25;60.14
30875;BME280;17581;43.222;27.924;2023-04-01T07:48:35;99659.97;;;16.17;60.38
30875;BME280;17581;43.222;27.924;2023-04-01T07:56:32;99659.41;;;16.59;59.34
30875;BME280;17581;43.222;27.924;2023-04-01T08:01:52;99647.50;;;16.74;59.79
30875;BME280;17581;43.222;27.924;2023-04-01T08:07:18;99635.41;;;17.06;58.50
30875;BME280;17581;43.222;27.924;2023-04-01T08:09:58;99629.03;;;17.35;58.42
30875;BME280;17581;43.222;27.924;2023-04-01T08:15:27;99627.56;;;17.54;57.72
30875;BME280;17581;43.222;27.924;2023-04-01T08:20:46;99616.38;;;17.84;57.24
30875;BME280;17581;43.222;27.924;2023-04-01T08:23:19;99615.44;;;17.99;56.80
30875;BME280;17581;43.222;27.924;2023-04-01T08:25:53;99613.78;;;17.98;56.72
30875;BME280;17581;43.222;27.924;2023-04-01T08:28:37;99620.00;;;17.91;56.89
30875;BME280;17581;43.222;27.924;2023-04-01T08:31:05;99603.81;;;18.11;56.63
30875;BME280;17581;43.222;27.924;2023-04-01T08:33:34;99601.53;;;18.15;56.37
30875;BME280;17581;43.222;27.924;2023-04-01T08:36:10;99598.09;;;18.27;56.14
30875;BME280;17581;43.222;27.924;2023-04-01T08:38:43;99601.44;;;18.29;56.02
30875;BME280;17581;43.222;27.924;2023-04-01T08:41:13;99599.78;;;18.28;55.86
30875;BME280;17581;43.222;27.924;2023-04-01T08:47:02;99603.31;;;18.01;56.79
30875;BME280;17581;43.222;27.924;2023-04-01T08:57:56;99590.94;;;18.26;57.13
30875;BME280;17581;43.222;27.924;2023-04-01T09:03:35;99598.19;;;18.40;56.58
30875;BME280;17581;43.222;27.924;2023-04-01T09:09:17;99578.13;;;18.20;56.71
30875;BME280;17581;43.222;27.924;2023-04-01T09:34:22;99550.78;;;18.69;55.85
30875;BME280;17581;43.222;27.924;2023-04-01T09:40:12;99554.75;;;18.67;56.48
30875;BME280;17581;43.222;27.924;2023-04-01T09:45:21;99537.44;;;18.40;57.43
30875;BME280;17581;43.222;27.924;2023-04-01T10:05:28;99486.63;;;18.54;57.77
30875;BME280;17581;43.222;27.924;2023-04-01T10:08:07;99479.38;;;18.33;58.49
30875;BME280;17581;43.222;27.924;2023-04-01T10:19:18;99461.84;;;18.01;58.98
30875;BME280;17581;43.222;27.924;2023-04-01T10:25:05;99458.63;;;17.84;60.09
30875;BME280;17581;43.222;27.924;2023-04-01T10:36:52;99458.75;;;18.11;60.25
30875;BME280;17581;43.222;27.924;2023-04-01T10:39:34;99456.06;;;18.17;59.53
30875;BME280;17581;43.222;27.924;2023-04-01T10:58:54;99425.34;;;18.30;59.87
30875;BME280;17581;43.222;27.924;2023-04-01T11:24:48;99399.44;;;18.47;59.70
30875;BME280;17581;43.222;27.924;2023-04-01T11:35:36;99394.69;;;18.56;58.38
30875;BME280;17581;43.222;27.924;2023-04-01T11:41:02;99391.34;;;18.67;58.21
30875;BME280;17581;43.222;27.924;2023-04-01T11:43:49;99390.09;;;18.76;57.77
30875;BME280;17581;43.222;27.924;2023-04-01T11:55:22;99378.59;;;19.07;58.37
30875;BME280;17581;43.222;27.924;2023-04-01T12:08:55;99359.06;;;19.69;56.19
30875;BME280;17581;43.222;27.924;2023-04-01T12:11:33;99356.50;;;19.74;55.63
30875;BME280;17581;43.222;27.924;2023-04-01T12:19:29;99354.66;;;19.54;56.11
30875;BME280;17581;43.222;27.924;2023-04-01T12:27:27;99334.69;;;19.74;55.81
30875;BME280;17581;43.222;27.924;2023-04-01T12:33:11;99344.75;;;19.80;55.39
30875;BME280;17581;43.222;27.924;2023-04-01T12:38:36;99339.09;;;19.81;55.87
30875;BME280;17581;43.222;27.924;2023-04-01T13:00:43;99332.28;;;19.00;57.71
30875;BME280;17581;43.222;27.924;2023-04-01T13:03:47;99344.00;;;18.55;58.97
30875;BME280;17581;43.222;27.924;2023-04-01T13:23:24;99299.97;;;18.31;60.84
30875;BME280;17581;43.222;27.924;2023-04-01T13:25:54;99307.28;;;18.37;60.69
30875;BME280;17581;43.222;27.924;2023-04-01T13:28:24;99300.38;;;18.41;60.40
30875;BME280;17581;43.222;27.924;2023-04-01T13:33:57;99299.16;;;18.51;60.58
30875;BME280;17581;43.222;27.924;2023-04-01T13:39:44;99294.34;;;18.85;60.09
30875;BME280;17581;43.222;27.924;2023-04-01T14:10:40;99282.22;;;18.55;58.67
30875;BME280;17581;43.222;27.924;2023-04-01T14:21:38;99276.47;;;18.24;59.22
30875;BME280;17581;43.222;27.924;2023-04-01T14:29:37;99288.16;;;18.05;59.95
30875;BME280;17581;43.222;27.924;2023-04-01T14:32:16;99270.16;;;17.97;60.21
30875;BME280;17581;43.222;27.924;2023-04-01T14:35:09;99281.06;;;18.10;60.28
30875;BME280;17581;43.222;27.924;2023-04-01T14:52:25;99255.88;;;17.82;60.90
30875;BME280;17581;43.222;27.924;2023-04-01T14:54:52;99250.44;;;17.82;60.53
30875;BME280;17581;43.222;27.924;2023-04-01T14:57:31;99244.56;;;17.78;60.55
30875;BME280;17581;43.222;27.924;2023-04-01T15:05:32;99239.97;;;17.79;60.75
30875;BME280;17581;43.222;27.924;2023-04-01T15:08:07;99232.00;;;17.77;60.18
30875;BME280;17581;43.222;27.924;2023-04-01T15:11:12;99234.53;;;17.79;60.14
30875;BME280;17581;43.222;27.924;2023-04-01T15:14:01;99224.03;;;17.69;60.49
30875;BME280;17581;43.222;27.924;2023-04-01T15:24:43;99220.50;;;17.75;60.26
30875;BME280;17581;43.222;27.924;2023-04-01T15:37:56;99216.16;;;17.40;61.10
30875;BME280;17581;43.222;27.924;2023-04-01T15:40:42;99216.78;;;17.35;61.23
30875;BME280;17581;43.222;27.924;2023-04-01T15:51:12;99201.56;;;16.45;64.04
30875;BME280;17581;43.222;27.924;2023-04-01T15:54:02;99200.16;;;16.27;64.49
30875;BME280;17581;43.222;27.924;2023-04-01T15:59:38;99206.28;;;16.08;65.45
30875;BME280;17581;43.222;27.924;2023-04-01T16:02:15;99211.88;;;16.07;65.67
30875;BME280;17581;43.222;27.924;2023-04-01T16:16:38;99237.84;;;16.16;65.90
30875;BME280;17581;43.222;27.924;2023-04-01T16:22:02;99235.31;;;16.14;66.17
30875;BME280;17581;43.222;27.924;2023-04-01T16:24:35;99237.13;;;16.07;66.56
30875;BME280;17581;43.222;27.924;2023-04-01T16:27:44;99249.59;;;16.23;66.18
30875;BME280;17581;43.222;27.924;2023-04-01T16:33:02;99228.91;;;16.22;65.84
30875;BME280;17581;43.222;27.924;2023-04-01T16:43:30;99248.28;;;16.61;65.14
30875;BME280;17581;43.222;27.924;2023-04-01T16:46:32;99241.59;;;16.64;64.91
30875;BME280;17581;43.222;27.924;2023-04-01T16:54:36;99242.22;;;16.59;65.11
30875;BME280;17581;43.222;27.924;2023-04-01T16:57:19;99246.00;;;16.65;65.04
30875;BME280;17581;43.222;27.924;2023-04-01T17:00:14;99245.16;;;16.64;64.79
30875;BME280;17581;43.222;27.924;2023-04-01T17:02:49;99240.19;;;16.68;65.18
30875;BME280;17581;43.222;27.924;2023-04-01T17:05:17;99228.88;;;16.64;64.96
30875;BME280;17581;43.222;27.924;2023-04-01T17:11:24;99228.81;;;16.58;65.08
30875;BME280;17581;43.222;27.924;2023-04-01T17:19:49;99210.53;;;16.66;65.14
30875;BME280;17581;43.222;27.924;2023-04-01T17:25:42;99211.75;;;16.64;65.16
30875;BME280;17581;43.222;27.924;2023-04-01T17:33:45;99206.63;;;16.75;64.71
30875;BME280;17581;43.222;27.924;2023-04-01T17:36:42;99203.47;;;16.72;64.78
30875;BME280;17581;43.222;27.924;2023-04-01T17:39:25;99189.22;;;16.70;64.75
30875;BME280;17581;43.222;27.924;2023-04-01T17:47:55;99204.66;;;16.63;65.96
30875;BME280;17581;43.222;27.924;2023-04-01T17:50:53;99208.00;;;16.65;66.14
30875;BME280;17581;43.222;27.924;2023-04-01T17:53:45;99206.31;;;16.64;66.21
30875;BME280;17581;43.222;27.924;2023-04-01T17:59:16;99212.16;;;16.40;66.96
30875;BME280;17581;43.222;27.924;2023-04-01T18:07:18;99212.56;;;16.15;69.12
30875;BME280;17581;43.222;27.924;2023-04-01T18:10:28;99208.25;;;16.00;69.93
30875;BME280;17581;43.222;27.924;2023-04-01T18:18:46;99188.19;;;15.73;71.35
30875;BME280;17581;43.222;27.924;2023-04-01T18:24:16;99181.06;;;15.51;72.22
30875;BME280;17581;43.222;27.924;2023-04-01T18:26:59;99200.69;;;15.53;72.00
30875;BME280;17581;43.222;27.924;2023-04-01T18:29:27;99195.44;;;15.51;72.92
30875;BME280;17581;43.222;27.924;2023-04-01T18:32:13;99193.28;;;15.47;73.03
30875;BME280;17581;43.222;27.924;2023-04-01T18:34:50;99179.84;;;15.39;73.28
30875;BME280;17581;43.222;27.924;2023-04-01T18:45:22;99228.88;;;15.44;73.46
30875;BME280;17581;43.222;27.924;2023-04-01T18:50:50;99243.19;;;15.52;73.25
30875;BME280;17581;43.222;27.924;2023-04-01T18:55:53;99247.00;;;15.58;72.95
30875;BME280;17581;43.222;27.924;2023-04-01T19:01:05;99243.38;;;15.36;72.11
30875;BME280;17581;43.222;27.924;2023-04-01T19:03:48;99270.00;;;15.33;72.47
30875;BME280;17581;43.222;27.924;2023-04-01T19:11:54;99250.41;;;15.01;73.84
30875;BME280;17581;43.222;27.924;2023-04-01T19:26:37;99259.44;;;14.64;76.09
30875;BME280;17581;43.222;27.924;2023-04-01T19:29:18;99262.31;;;14.63;76.49
30875;BME280;17581;43.222;27.924;2023-04-01T19:32:15;99271.44;;;14.62;77.12
30875;BME280;17581;43.222;27.924;2023-04-01T19:37:27;99279.38;;;14.63;77.38
30875;BME280;17581;43.222;27.924;2023-04-01T19:45:32;99281.25;;;14.63;78.25
30875;BME280;17581;43.222;27.924;2023-04-01T19:48:12;99278.38;;;14.64;78.20
30875;BME280;17581;43.222;27.924;2023-04-01T19:51:06;99283.59;;;14.66;78.61
30875;BME280;17581;43.222;27.924;2023-04-01T19:53:41;99271.00;;;14.58;78.56
30875;BME280;17581;43.222;27.924;2023-04-01T19:56:18;99278.53;;;14.63;78.16
30875;BME280;17581;43.222;27.924;2023-04-01T19:58:53;99271.44;;;14.62;78.66
30875;BME280;17581;43.222;27.924;2023-04-01T20:03:51;99271.25;;;14.49;77.68
30875;BME280;17581;43.222;27.924;2023-04-01T20:06:28;99235.41;;;14.47;76.92
30875;BME280;17581;43.222;27.924;2023-04-01T20:09:10;99254.34;;;14.47;76.24
30875;BME280;17581;43.222;27.924;2023-04-01T20:14:20;99273.53;;;14.37;75.63
30875;BME280;17581;43.222;27.924;2023-04-01T20:22:00;99239.88;;;14.40;75.54
30875;BME280;17581;43.222;27.924;2023-04-01T20:24:42;99249.19;;;14.37;75.65
30875;BME280;17581;43.222;27.924;2023-04-01T20:27:17;99235.84;;;14.36;75.68
30875;BME280;17581;43.222;27.924;2023-04-01T20:30:00;99229.34;;;14.22;76.33
30875;BME280;17581;43.222;27.924;2023-04-01T20:47:06;99255.97;;;13.88;75.72
30875;BME280;17581;43.222;27.924;2023-04-01T20:49:44;99285.63;;;13.96;74.93
30875;BME280;17581;43.222;27.924;2023-04-01T21:08:26;99314.38;;;14.19;76.59
30875;BME280;17581;43.222;27.924;2023-04-01T21:11:18;99315.34;;;14.27;76.30
30875;BME280;17581;43.222;27.924;2023-04-01T21:14:00;99319.34;;;14.39;76.17
30875;BME280;17581;43.222;27.924;2023-04-01T21:16:49;99327.63;;;14.37;74.89
30875;BME280;17581;43.222;27.924;2023-04-01T21:22:19;99352.03;;;14.52;73.83
30875;BME280;17581;43.222;27.924;2023-04-01T21:33:04;99380.22;;;14.35;74.90
30875;BME280;17581;43.222;27.924;2023-04-01T21:36:03;99395.63;;;14.26;76.11
30875;BME280;17581;43.222;27.924;2023-04-01T22:06:28;99389.91;;;13.90;79.74
30875;BME280;17581;43.222;27.924;2023-04-01T22:14:21;99391.06;;;13.96;80.10
30875;BME280;17581;43.222;27.924;2023-04-01T22:17:14;99392.56;;;13.98;79.76
30875;BME280;17581;43.222;27.924;2023-04-01T22:31:07;99446.00;;;14.27;78.83
30875;BME280;17581;43.222;27.924;2023-04-01T22:34:06;99439.75;;;14.27;78.35
30875;BME280;17581;43.222;27.924;2023-04-01T22:53:14;99427.41;;;13.93;79.07
30875;BME280;17581;43.222;27.924;2023-04-01T22:55:44;99445.78;;;13.98;78.96
30875;BME280;17581;43.222;27.924;2023-04-01T22:58:15;99447.72;;;13.81;78.95
30875;BME280;17581;43.222;27.924;2023-04-01T23:00:45;99453.28;;;13.80;79.38
30875;BME280;17581;43.222;27.924;2023-04-01T23:03:32;99452.78;;;13.76;79.81
30875;BME280;17581;43.222;27.924;2023-04-01T23:06:01;99444.16;;;13.81;79.81
30875;BME280;17581;43.222;27.924;2023-04-01T23:11:41;99442.63;;;13.86;79.31
30875;BME280;17581;43.222;27.924;2023-04-01T23:19:45;99456.78;;;13.88;77.73
30875;BME280;17581;43.222;27.924;2023-04-01T23:27:28;99469.34;;;13.73;75.90
30875;BME280;17581;43.222;27.924;2023-04-01T23:29:56;99469.00;;;13.76;75.55
30875;BME280;17581;43.222;27.924;2023-04-01T23:32:25;99461.25;;;13.65;74.93
30875;BME280;17581;43.222;27.924;2023-04-01T23:34:54;99463.44;;;13.78;74.21
30875;BME280;17581;43.222;27.924;2023-04-01T23:37:20;99452.66;;;13.70;72.13
30875;BME280;17581;43.222;27.924;2023-04-01T23:39:49;99451.97;;;13.68;71.02
30875;BME280;17581;43.222;27.924;2023-04-01T23:44:48;99460.81;;;13.45;67.13
30875;BME280;17581;43.222;27.924;2023-04-01T23:47:26;99453.91;;;13.35;67.01
30875;BME280;17581;43.222;27.924;2023-04-01T23:49:57;99465.91;;;13.32;66.73
30875;BME280;17581;43.222;27.924;2023-04-01T23:52:26;99460.31;;;13.26;66.54